sensor_id;sensor_type;location;lat;lon;timestamp;pressure;altitude;pressure_sealevel;temperature;humidity
45888;BME280;31595;51.418;7.572;2022-07-09T00:00:14;101486.91;;;17.34;68.42
45888;BME280;31595;51.418;7.572;2022-07-09T00:02:41;101479.63;;;17.33;68.33
45888;BME280;31595;51.418;7.572;2022-07-09T00:05:08;101483.09;;;17.30;68.39
45888;BME280;31595;51.418;7.572;2022-07-09T00:07:38;101482.97;;;17.27;68.70
45888;BME280;31595;51.418;7.572;2022-07-09T00:10:05;101481.66;;;17.24;68.47
45888;BME280;31595;51.418;7.572;2022-07-09T00:12:33;101483.00;;;17.18;68.77
45888;BME280;31595;51.418;7.572;2022-07-09T00:15:00;101476.88;;;17.16;68.94
45888;BME280;31595;51.418;7.572;2022-07-09T00:17:29;101473.56;;;17.14;68.95
45888;BME280;31595;51.418;7.572;2022-07-09T00:19:57;101470.09;;;17.08;69.15
45888;BME280;31595;51.418;7.572;2022-07-09T00:22:25;101472.91;;;17.08;69.04
45888;BME280;31595;51.418;7.572;2022-07-09T00:24:53;101474.53;;;17.09;68.73
45888;BME280;31595;51.418;7.572;2022-07-09T00:27:20;101470.91;;;17.09;68.75
45888;BME280;31595;51.418;7.572;2022-07-09T00:29:48;101465.97;;;17.06;68.94
45888;BME280;31595;51.418;7.572;2022-07-09T00:32:15;101462.97;;;17.02;69.04
45888;BME280;31595;51.418;7.572;2022-07-09T00:34:45;101462.97;;;17.02;69.10
45888;BME280;31595;51.418;7.572;2022-07-09T00:37:12;101468.94;;;17.00;69.18
45888;BME280;31595;51.418;7.572;2022-07-09T00:39:40;101468.13;;;17.00;69.15
45888;BME280;31595;51.418;7.572;2022-07-09T00:42:09;101463.31;;;17.00;69.06
45888;BME280;31595;51.418;7.572;2022-07-09T00:44:37;101460.00;;;16.98;68.99
45888;BME280;31595;51.418;7.572;2022-07-09T00:47:06;101457.84;;;16.95;69.16
45888;BME280;31595;51.418;7.572;2022-07-09T00:49:38;101460.69;;;16.95;69.32
45888;BME280;31595;51.418;7.572;2022-07-09T00:52:10;101459.00;;;16.94;69.25
45888;BME280;31595;51.418;7.572;2022-07-09T00:54:39;101458.50;;;16.92;69.30
45888;BME280;31595;51.418;7.572;2022-07-09T00:57:08;101455.56;;;16.89;69.51
45888;BME280;31595;51.418;7.572;2022-07-09T00:59:37;101457.03;;;16.86;69.56
45888;BME280;31595;51.418;7.572;2022-07-09T01:02:06;101446.94;;;16.85;69.51
45888;BME280;31595;51.418;7.572;2022-07-09T01:04:34;101448.59;;;16.86;69.36
45888;BME280;31595;51.418;7.572;2022-07-09T01:07:02;101442.81;;;16.82;69.32
45888;BME280;31595;51.418;7.572;2022-07-09T01:09:31;101450.09;;;16.83;69.31
45888;BME280;31595;51.418;7.572;2022-07-09T01:11:59;101445.25;;;16.75;69.76
45888;BME280;31595;51.418;7.572;2022-07-09T01:14:27;101440.63;;;16.71;69.64
45888;BME280;31595;51.418;7.572;2022-07-09T01:16:58;101438.84;;;16.66;69.68
45888;BME280;31595;51.418;7.572;2022-07-09T01:19:28;101433.53;;;16.56;69.98
45888;BME280;31595;51.418;7.572;2022-07-09T01:21:57;101441.81;;;16.52;70.09
45888;BME280;31595;51.418;7.572;2022-07-09T01:24:27;101442.47;;;16.49;70.21
45888;BME280;31595;51.418;7.572;2022-07-09T01:26:54;101443.13;;;16.46;70.48
45888;BME280;31595;51.418;7.572;2022-07-09T01:29:21;101442.63;;;16.44;70.67
45888;BME280;31595;51.418;7.572;2022-07-09T01:31:49;101438.69;;;16.45;70.76
45888;BME280;31595;51.418;7.572;2022-07-09T01:34:17;101433.38;;;16.43;70.82
45888;BME280;31595;51.418;7.572;2022-07-09T01:36:44;101438.34;;;16.47;70.61
45888;BME280;31595;51.418;7.572;2022-07-09T01:39:16;101435.84;;;16.45;70.47
45888;BME280;31595;51.418;7.572;2022-07-09T01:41:43;101433.38;;;16.43;70.69
45888;BME280;31595;51.418;7.572;2022-07-09T01:44:11;101436.50;;;16.42;70.87
45888;BME280;31595;51.418;7.572;2022-07-09T01:46:38;101429.75;;;16.43;70.79
45888;BME280;31595;51.418;7.572;2022-07-09T01:49:08;101434.38;;;16.39;71.02
45888;BME280;31595;51.418;7.572;2022-07-09T01:51:35;101422.13;;;16.35;71.00
45888;BME280;31595;51.418;7.572;2022-07-09T01:54:06;101418.19;;;16.36;71.10
45888;BME280;31595;51.418;7.572;2022-07-09T01:56:34;101415.38;;;16.36;71.08
45888;BME280;31595;51.418;7.572;2022-07-09T01:59:02;101416.19;;;16.36;71.13
45888;BME280;31595;51.418;7.572;2022-07-09T02:01:29;101417.69;;;16.34;71.25
45888;BME280;31595;51.418;7.572;2022-07-09T02:03:56;101415.19;;;16.32;71.36
45888;BME280;31595;51.418;7.572;2022-07-09T02:06:26;101401.78;;;16.29;71.33
45888;BME280;31595;51.418;7.572;2022-07-09T02:08:56;101406.41;;;16.25;71.36
45888;BME280;31595;51.418;7.572;2022-07-09T02:11:24;101407.56;;;16.24;71.50
45888;BME280;31595;51.418;7.572;2022-07-09T02:13:54;101400.63;;;16.21;71.73
45888;BME280;31595;51.418;7.572;2022-07-09T02:16:21;101400.47;;;16.18;71.81
45888;BME280;31595;51.418;7.572;2022-07-09T02:18:53;101407.06;;;16.13;72.02
45888;BME280;31595;51.418;7.572;2022-07-09T02:21:22;101399.47;;;16.14;71.78
45888;BME280;31595;51.418;7.572;2022-07-09T02:23:49;101407.06;;;16.13;71.68
45888;BME280;31595;51.418;7.572;2022-07-09T02:26:16;101404.25;;;16.13;71.77
45888;BME280;31595;51.418;7.572;2022-07-09T02:28:47;101404.25;;;16.13;71.53
45888;BME280;31595;51.418;7.572;2022-07-09T02:31:16;101398.63;;;16.13;71.11
45888;BME280;31595;51.418;7.572;2022-07-09T02:33:43;101400.97;;;16.11;70.95
45888;BME280;31595;51.418;7.572;2022-07-09T02:36:10;101400.97;;;16.11;71.10
45888;BME280;31595;51.418;7.572;2022-07-09T02:38:38;101397.16;;;16.07;71.16
45888;BME280;31595;51.418;7.572;2022-07-09T02:41:07;101402.59;;;16.03;71.38
45888;BME280;31595;51.418;7.572;2022-07-09T02:43:35;101406.88;;;16.01;71.58
45888;BME280;31595;51.418;7.572;2022-07-09T02:46:02;101405.22;;;16.00;71.93
45888;BME280;31595;51.418;7.572;2022-07-09T02:48:31;101399.28;;;15.93;72.51
45888;BME280;31595;51.418;7.572;2022-07-09T02:50:58;101398.94;;;15.94;72.33
45888;BME280;31595;51.418;7.572;2022-07-09T02:53:26;101397.47;;;15.97;72.57
45888;BME280;31595;51.418;7.572;2022-07-09T02:55:57;101399.44;;;15.96;72.90
45888;BME280;31595;51.418;7.572;2022-07-09T02:58:24;101389.84;;;16.06;72.67
45888;BME280;31595;51.418;7.572;2022-07-09T03:00:51;101395.50;;;16.15;72.76
45888;BME280;31595;51.418;7.572;2022-07-09T03:03:19;101392.69;;;16.23;72.84
45888;BME280;31595;51.418;7.572;2022-07-09T03:05:50;101383.94;;;16.34;72.79
45888;BME280;31595;51.418;7.572;2022-07-09T03:08:18;101391.19;;;16.43;72.57
45888;BME280;31595;51.418;7.572;2022-07-09T03:10:47;101390.34;;;16.52;72.37
45888;BME280;31595;51.418;7.572;2022-07-09T03:13:15;101386.72;;;16.60;72.15
45888;BME280;31595;51.418;7.572;2022-07-09T03:15:42;101383.72;;;16.65;71.86
45888;BME280;31595;51.418;7.572;2022-07-09T03:18:10;101381.22;;;16.72;71.82
45888;BME280;31595;51.418;7.572;2022-07-09T03:20:37;101377.91;;;16.79;71.64
45888;BME280;31595;51.418;7.572;2022-07-09T03:23:09;101384.22;;;16.84;71.42
45888;BME280;31595;51.418;7.572;2022-07-09T03:25:39;101378.25;;;16.86;71.60
45888;BME280;31595;51.418;7.572;2022-07-09T03:28:06;101373.25;;;16.92;71.42
45888;BME280;31595;51.418;7.572;2022-07-09T03:30:33;101370.94;;;16.94;71.40
45888;BME280;31595;51.418;7.572;2022-07-09T03:33:01;101379.22;;;16.90;71.72
45888;BME280;31595;51.418;7.572;2022-07-09T03:35:28;101372.94;;;16.93;71.48
45888;BME280;31595;51.418;7.572;2022-07-09T03:37:59;101370.78;;;16.99;71.54
45888;BME280;31595;51.418;7.572;2022-07-09T03:40:28;101379.34;;;17.02;71.56
45888;BME280;31595;51.418;7.572;2022-07-09T03:42:56;101380.50;;;17.10;71.16
45888;BME280;31595;51.418;7.572;2022-07-09T03:45:24;101373.53;;;17.16;71.16
45888;BME280;31595;51.418;7.572;2022-07-09T03:47:51;101380.78;;;17.17;71.39
45888;BME280;31595;51.418;7.572;2022-07-09T03:50:18;101372.19;;;17.22;71.24
45888;BME280;31595;51.418;7.572;2022-07-09T03:52:46;101371.66;;;17.29;71.13
45888;BME280;31595;51.418;7.572;2022-07-09T03:55:13;101371.94;;;17.36;71.18
45888;BME280;31595;51.418;7.572;2022-07-09T03:57:42;101375.38;;;17.42;70.85
45888;BME280;31595;51.418;7.572;2022-07-09T04:00:10;101374.03;;;17.48;70.79
45888;BME280;31595;51.418;7.572;2022-07-09T04:02:37;101376.81;;;17.57;70.29
45888;BME280;31595;51.418;7.572;2022-07-09T04:05:06;101365.34;;;17.62;69.75
45888;BME280;31595;51.418;7.572;2022-07-09T04:07:40;101373.94;;;17.65;69.46
45888;BME280;31595;51.418;7.572;2022-07-09T04:10:08;101374.22;;;17.73;69.38
45888;BME280;31595;51.418;7.572;2022-07-09T04:12:37;101366.38;;;17.78;69.16
45888;BME280;31595;51.418;7.572;2022-07-09T04:15:07;101374.69;;;17.83;68.84
45888;BME280;31595;51.418;7.572;2022-07-09T04:17:34;101374.13;;;17.90;68.66
45888;BME280;31595;51.418;7.572;2022-07-09T04:20:05;101375.44;;;17.93;68.67
45888;BME280;31595;51.418;7.572;2022-07-09T04:22:32;101380.47;;;17.78;68.96
45888;BME280;31595;51.418;7.572;2022-07-09T04:25:03;101380.47;;;17.87;68.66
45888;BME280;31595;51.418;7.572;2022-07-09T04:27:30;101381.28;;;17.88;68.77
45888;BME280;31595;51.418;7.572;2022-07-09T04:29:57;101381.84;;;18.02;68.32
45888;BME280;31595;51.418;7.572;2022-07-09T04:32:26;101372.50;;;17.80;69.19
45888;BME280;31595;51.418;7.572;2022-07-09T04:34:53;101371.41;;;18.02;68.56
45888;BME280;31595;51.418;7.572;2022-07-09T04:37:21;101376.63;;;18.13;68.31
45888;BME280;31595;51.418;7.572;2022-07-09T04:39:48;101371.81;;;18.13;68.13
45888;BME280;31595;51.418;7.572;2022-07-09T04:42:17;101368.78;;;18.18;68.13
45888;BME280;31595;51.418;7.572;2022-07-09T04:44:45;101377.53;;;18.25;68.21
45888;BME280;31595;51.418;7.572;2022-07-09T04:47:13;101370.97;;;18.34;68.02
45888;BME280;31595;51.418;7.572;2022-07-09T04:49:41;101368.66;;;18.36;68.06
45888;BME280;31595;51.418;7.572;2022-07-09T04:52:09;101359.94;;;18.41;68.17
45888;BME280;31595;51.418;7.572;2022-07-09T04:54:36;101360.66;;;18.38;68.56
45888;BME280;31595;51.418;7.572;2022-07-09T04:57:04;101360.44;;;18.43;68.44
45888;BME280;31595;51.418;7.572;2022-07-09T04:59:32;101362.16;;;18.56;68.20
45888;BME280;31595;51.418;7.572;2022-07-09T05:01:59;101364.03;;;18.64;67.87
45888;BME280;31595;51.418;7.572;2022-07-09T05:04:26;101361.16;;;18.73;67.81
45888;BME280;31595;51.418;7.572;2022-07-09T05:06:55;101360.84;;;18.87;67.48
45888;BME280;31595;51.418;7.572;2022-07-09T05:09:22;101364.88;;;18.98;67.21
45888;BME280;31595;51.418;7.572;2022-07-09T05:11:50;101371.25;;;19.08;67.11
45888;BME280;31595;51.418;7.572;2022-07-09T05:14:17;101358.78;;;19.21;66.80
45888;BME280;31595;51.418;7.572;2022-07-09T05:16:44;101357.38;;;19.39;66.05
45888;BME280;31595;51.418;7.572;2022-07-09T05:19:12;101365.25;;;19.46;65.68
45888;BME280;31595;51.418;7.572;2022-07-09T05:21:39;101359.59;;;19.46;65.69
45888;BME280;31595;51.418;7.572;2022-07-09T05:24:08;101362.44;;;19.46;65.55
45888;BME280;31595;51.418;7.572;2022-07-09T05:26:35;101367.00;;;19.51;65.29
45888;BME280;31595;51.418;7.572;2022-07-09T05:29:03;101370.31;;;19.53;65.00
45888;BME280;31595;51.418;7.572;2022-07-09T05:31:30;101379.63;;;19.53;65.08
45888;BME280;31595;51.418;7.572;2022-07-09T05:33:57;101375.97;;;19.53;65.07
45888;BME280;31595;51.418;7.572;2022-07-09T05:36:26;101372.78;;;19.54;65.35
45888;BME280;31595;51.418;7.572;2022-07-09T05:38:55;101379.72;;;19.57;65.43
45888;BME280;31595;51.418;7.572;2022-07-09T05:41:23;101378.22;;;19.59;65.43
45888;BME280;31595;51.418;7.572;2022-07-09T05:43:51;101378.69;;;19.61;65.45
45888;BME280;31595;51.418;7.572;2022-07-09T05:46:19;101382.47;;;19.65;65.16
45888;BME280;31595;51.418;7.572;2022-07-09T05:48:46;101375.03;;;19.73;65.40
45888;BME280;31595;51.418;7.572;2022-07-09T05:51:14;101377.59;;;19.91;65.10
45888;BME280;31595;51.418;7.572;2022-07-09T05:53:41;101379.94;;;20.01;64.99
45888;BME280;31595;51.418;7.572;2022-07-09T05:56:09;101373.56;;;20.16;64.89
45888;BME280;31595;51.418;7.572;2022-07-09T05:58:37;101380.97;;;20.49;64.12
45888;BME280;31595;51.418;7.572;2022-07-09T06:01:05;101374.16;;;20.78;63.15
45888;BME280;31595;51.418;7.572;2022-07-09T06:03:32;101374.19;;;20.94;62.88
45888;BME280;31595;51.418;7.572;2022-07-09T06:05:59;101377.47;;;21.12;61.99
45888;BME280;31595;51.418;7.572;2022-07-09T06:08:27;101367.63;;;21.22;62.05
45888;BME280;31595;51.418;7.572;2022-07-09T06:10:54;101366.06;;;21.40;61.45
45888;BME280;31595;51.418;7.572;2022-07-09T06:13:21;101371.22;;;21.51;61.12
45888;BME280;31595;51.418;7.572;2022-07-09T06:15:51;101373.75;;;21.56;61.24
45888;BME280;31595;51.418;7.572;2022-07-09T06:18:19;101368.19;;;21.59;60.86
45888;BME280;31595;51.418;7.572;2022-07-09T06:20:48;101368.34;;;21.66;60.57
45888;BME280;31595;51.418;7.572;2022-07-09T06:23:15;101369.00;;;21.60;60.52
45888;BME280;31595;51.418;7.572;2022-07-09T06:25:43;101373.66;;;21.68;60.10
45888;BME280;31595;51.418;7.572;2022-07-09T06:28:10;101372.72;;;21.80;59.53
45888;BME280;31595;51.418;7.572;2022-07-09T06:30:37;101373.03;;;21.94;59.43
45888;BME280;31595;51.418;7.572;2022-07-09T06:33:06;101364.16;;;21.96;58.79
45888;BME280;31595;51.418;7.572;2022-07-09T06:35:33;101374.19;;;22.09;57.99
45888;BME280;31595;51.418;7.572;2022-07-09T06:38:00;101373.13;;;22.17;57.14
45888;BME280;31595;51.418;7.572;2022-07-09T06:40:28;101369.72;;;22.27;56.91
45888;BME280;31595;51.418;7.572;2022-07-09T06:42:55;101369.59;;;22.40;55.73
45888;BME280;31595;51.418;7.572;2022-07-09T06:45:22;101368.47;;;22.44;55.23
45888;BME280;31595;51.418;7.572;2022-07-09T06:47:50;101376.47;;;22.58;54.51
45888;BME280;31595;51.418;7.572;2022-07-09T06:50:20;101366.28;;;22.57;54.33
45888;BME280;31595;51.418;7.572;2022-07-09T06:52:47;101361.94;;;22.83;54.85
45888;BME280;31595;51.418;7.572;2022-07-09T06:55:15;101366.81;;;23.05;54.54
45888;BME280;31595;51.418;7.572;2022-07-09T06:57:42;101370.19;;;23.11;53.06
45888;BME280;31595;51.418;7.572;2022-07-09T07:00:10;101373.34;;;23.29;51.67
45888;BME280;31595;51.418;7.572;2022-07-09T07:02:37;101362.75;;;23.53;51.57
45888;BME280;31595;51.418;7.572;2022-07-09T07:05:05;101365.25;;;23.81;51.31
45888;BME280;31595;51.418;7.572;2022-07-09T07:07:34;101368.75;;;23.97;50.47
45888;BME280;31595;51.418;7.572;2022-07-09T07:10:01;101367.47;;;24.21;49.80
45888;BME280;31595;51.418;7.572;2022-07-09T07:12:28;101367.09;;;24.26;50.00
45888;BME280;31595;51.418;7.572;2022-07-09T07:14:56;101369.88;;;24.49;48.95
45888;BME280;31595;51.418;7.572;2022-07-09T07:17:23;101369.66;;;24.65;48.78
45888;BME280;31595;51.418;7.572;2022-07-09T07:19:50;101372.19;;;24.74;47.88
45888;BME280;31595;51.418;7.572;2022-07-09T07:22:18;101362.41;;;24.75;47.58
45888;BME280;31595;51.418;7.572;2022-07-09T07:24:46;101370.41;;;24.62;48.23
45888;BME280;31595;51.418;7.572;2022-07-09T07:27:13;101374.19;;;24.74;47.01
45888;BME280;31595;51.418;7.572;2022-07-09T07:29:41;101360.25;;;24.65;47.65
45888;BME280;31595;51.418;7.572;2022-07-09T07:32:08;101368.09;;;24.71;46.45
45888;BME280;31595;51.418;7.572;2022-07-09T07:34:36;101362.91;;;24.81;46.40
45888;BME280;31595;51.418;7.572;2022-07-09T07:37:04;101369.19;;;24.97;46.44
45888;BME280;31595;51.418;7.572;2022-07-09T07:39:31;101357.28;;;25.29;46.04
45888;BME280;31595;51.418;7.572;2022-07-09T07:42:00;101352.53;;;25.47;45.19
45888;BME280;31595;51.418;7.572;2022-07-09T07:44:27;101343.72;;;25.67;44.28
45888;BME280;31595;51.418;7.572;2022-07-09T07:46:54;101348.59;;;25.70;44.17
45888;BME280;31595;51.418;7.572;2022-07-09T07:49:22;101353.97;;;25.75;44.66
45888;BME280;31595;51.418;7.572;2022-07-09T07:51:49;101344.16;;;25.76;44.28
45888;BME280;31595;51.418;7.572;2022-07-09T07:54:16;101344.72;;;25.92;43.98
45888;BME280;31595;51.418;7.572;2022-07-09T07:56:44;101340.75;;;26.15;42.29
45888;BME280;31595;51.418;7.572;2022-07-09T07:59:12;101349.34;;;26.22;42.02
45888;BME280;31595;51.418;7.572;2022-07-09T08:01:40;101353.47;;;26.32;41.58
45888;BME280;31595;51.418;7.572;2022-07-09T08:04:07;101347.53;;;26.87;40.92
45888;BME280;31595;51.418;7.572;2022-07-09T08:06:35;101347.16;;;27.18;40.88
45888;BME280;31595;51.418;7.572;2022-07-09T08:09:02;101341.50;;;27.32;40.58
45888;BME280;31595;51.418;7.572;2022-07-09T08:11:30;101345.13;;;27.07;40.35
45888;BME280;31595;51.418;7.572;2022-07-09T08:13:57;101347.53;;;26.98;40.71
45888;BME280;31595;51.418;7.572;2022-07-09T08:16:26;101349.16;;;28.00;38.85
45888;BME280;31595;51.418;7.572;2022-07-09T08:18:53;101339.34;;;28.01;38.58
45888;BME280;31595;51.418;7.572;2022-07-09T08:21:20;101349.59;;;27.73;38.93
45888;BME280;31595;51.418;7.572;2022-07-09T08:23:48;101335.72;;;27.46;38.34
45888;BME280;31595;51.418;7.572;2022-07-09T08:26:20;101339.41;;;27.22;38.46
45888;BME280;31595;51.418;7.572;2022-07-09T08:28:48;101337.47;;;28.57;36.87
45888;BME280;31595;51.418;7.572;2022-07-09T08:31:16;101332.78;;;29.44;35.08
45888;BME280;31595;51.418;7.572;2022-07-09T08:33:45;101329.38;;;31.18;32.50
45888;BME280;31595;51.418;7.572;2022-07-09T08:36:13;101316.81;;;32.39;30.99
45888;BME280;31595;51.418;7.572;2022-07-09T08:38:41;101314.34;;;33.10;30.14
45888;BME280;31595;51.418;7.572;2022-07-09T08:41:08;101309.72;;;34.33;27.39
45888;BME280;31595;51.418;7.572;2022-07-09T08:43:37;101305.16;;;34.61;26.83
45888;BME280;31595;51.418;7.572;2022-07-09T08:46:05;101290.22;;;35.14;25.94
45888;BME280;31595;51.418;7.572;2022-07-09T08:48:33;101294.00;;;35.71;25.65
45888;BME280;31595;51.418;7.572;2022-07-09T08:51:03;101283.31;;;36.56;23.53
45888;BME280;31595;51.418;7.572;2022-07-09T08:53:30;101281.78;;;37.24;23.14
45888;BME280;31595;51.418;7.572;2022-07-09T08:55:59;101271.97;;;38.04;22.61
45888;BME280;31595;51.418;7.572;2022-07-09T08:58:32;101274.38;;;38.15;22.25
45888;BME280;31595;51.418;7.572;2022-07-09T09:00:59;101275.03;;;38.62;22.03
45888;BME280;31595;51.418;7.572;2022-07-09T09:03:27;101286.03;;;37.87;23.01
45888;BME280;31595;51.418;7.572;2022-07-09T09:06:03;101286.41;;;37.03;23.77
45888;BME280;31595;51.418;7.572;2022-07-09T09:08:34;101282.19;;;36.10;23.37
45888;BME280;31595;51.418;7.572;2022-07-09T09:11:05;101285.59;;;35.04;24.83
45888;BME280;31595;51.418;7.572;2022-07-09T09:13:37;101285.78;;;33.90;26.16
45888;BME280;31595;51.418;7.572;2022-07-09T09:16:08;101283.03;;;33.41;27.66
45888;BME280;31595;51.418;7.572;2022-07-09T09:18:39;101282.66;;;33.97;26.62
45888;BME280;31595;51.418;7.572;2022-07-09T09:21:09;101271.94;;;33.98;26.05
45888;BME280;31595;51.418;7.572;2022-07-09T09:23:41;101269.03;;;34.53;25.55
45888;BME280;31595;51.418;7.572;2022-07-09T09:26:10;101273.09;;;34.55;25.55
45888;BME280;31595;51.418;7.572;2022-07-09T09:28:48;101261.50;;;34.30;26.13
45888;BME280;31595;51.418;7.572;2022-07-09T09:31:23;101267.63;;;34.19;26.43
45888;BME280;31595;51.418;7.572;2022-07-09T09:33:52;101267.50;;;34.23;26.32
45888;BME280;31595;51.418;7.572;2022-07-09T09:36:32;101270.41;;;33.93;26.61
45888;BME280;31595;51.418;7.572;2022-07-09T09:39:14;101266.09;;;34.14;25.87
45888;BME280;31595;51.418;7.572;2022-07-09T09:41:43;101263.94;;;33.89;26.80
45888;BME280;31595;51.418;7.572;2022-07-09T09:44:13;101279.34;;;33.24;27.18
45888;BME280;31595;51.418;7.572;2022-07-09T09:46:41;101270.28;;;32.73;28.10
45888;BME280;31595;51.418;7.572;2022-07-09T09:49:10;101263.00;;;32.12;28.81
45888;BME280;31595;51.418;7.572;2022-07-09T09:51:48;101252.97;;;31.80;28.92
45888;BME280;31595;51.418;7.572;2022-07-09T09:54:18;101259.66;;;31.53;29.79
45888;BME280;31595;51.418;7.572;2022-07-09T09:56:45;101257.91;;;30.89;31.14
45888;BME280;31595;51.418;7.572;2022-07-09T09:59:13;101257.28;;;30.47;31.35
45888;BME280;31595;51.418;7.572;2022-07-09T10:01:41;101258.16;;;30.13;32.34
45888;BME280;31595;51.418;7.572;2022-07-09T10:04:10;101252.69;;;29.91;32.97
45888;BME280;31595;51.418;7.572;2022-07-09T10:06:39;101256.72;;;29.98;33.64
45888;BME280;31595;51.418;7.572;2022-07-09T10:09:11;101258.22;;;29.75;34.34
45888;BME280;31595;51.418;7.572;2022-07-09T10:11:40;101257.09;;;29.65;33.94
45888;BME280;31595;51.418;7.572;2022-07-09T10:14:17;101254.03;;;29.45;33.86
45888;BME280;31595;51.418;7.572;2022-07-09T10:16:45;101259.31;;;29.50;33.77
45888;BME280;31595;51.418;7.572;2022-07-09T10:19:23;101250.78;;;29.40;34.23
45888;BME280;31595;51.418;7.572;2022-07-09T10:21:52;101249.53;;;29.44;33.67
45888;BME280;31595;51.418;7.572;2022-07-09T10:24:25;101253.00;;;29.63;33.56
45888;BME280;31595;51.418;7.572;2022-07-09T10:27:03;101254.38;;;29.51;33.99
45888;BME280;31595;51.418;7.572;2022-07-09T10:29:30;101252.78;;;29.46;33.37
45888;BME280;31595;51.418;7.572;2022-07-09T10:31:58;101249.22;;;29.31;34.17
45888;BME280;31595;51.418;7.572;2022-07-09T10:34:58;101244.72;;;29.34;33.77
45888;BME280;31595;51.418;7.572;2022-07-09T10:37:33;101248.31;;;29.42;34.30
45888;BME280;31595;51.418;7.572;2022-07-09T10:40:12;101247.94;;;29.40;34.04
45888;BME280;31595;51.418;7.572;2022-07-09T10:42:41;101237.56;;;29.49;34.16
45888;BME280;31595;51.418;7.572;2022-07-09T10:45:22;101237.84;;;29.62;33.09
45888;BME280;31595;51.418;7.572;2022-07-09T10:47:53;101238.13;;;29.75;32.92
45888;BME280;31595;51.418;7.572;2022-07-09T10:50:21;101229.06;;;29.80;32.41
45888;BME280;31595;51.418;7.572;2022-07-09T10:52:49;101237.34;;;29.71;32.94
45888;BME280;31595;51.418;7.572;2022-07-09T10:55:21;101231.94;;;29.80;32.87
45888;BME280;31595;51.418;7.572;2022-07-09T10:57:49;101229.56;;;29.71;33.14
45888;BME280;31595;51.418;7.572;2022-07-09T11:00:17;101229.72;;;29.57;33.33
45888;BME280;31595;51.418;7.572;2022-07-09T11:02:52;101224.25;;;29.66;33.38
45888;BME280;31595;51.418;7.572;2022-07-09T11:05:20;101224.38;;;29.55;33.45
45888;BME280;31595;51.418;7.572;2022-07-09T11:07:58;101224.88;;;29.85;33.47
45888;BME280;31595;51.418;7.572;2022-07-09T11:10:27;101226.38;;;29.97;32.74
45888;BME280;31595;51.418;7.572;2022-07-09T11:12:55;101219.38;;;30.28;33.30
45888;BME280;31595;51.418;7.572;2022-07-09T11:15:25;101211.41;;;30.67;32.33
45888;BME280;31595;51.418;7.572;2022-07-09T11:17:55;101212.75;;;31.09;31.87
45888;BME280;31595;51.418;7.572;2022-07-09T11:20:22;101206.88;;;30.93;31.38
45888;BME280;31595;51.418;7.572;2022-07-09T11:22:50;101211.44;;;30.63;31.42
45888;BME280;31595;51.418;7.572;2022-07-09T11:25:20;101206.22;;;30.31;32.10
45888;BME280;31595;51.418;7.572;2022-07-09T11:27:49;101204.75;;;29.88;32.87
45888;BME280;31595;51.418;7.572;2022-07-09T11:30:16;101211.88;;;29.39;34.23
45888;BME280;31595;51.418;7.572;2022-07-09T11:32:43;101216.28;;;29.05;34.82
45888;BME280;31595;51.418;7.572;2022-07-09T11:35:11;101210.41;;;29.23;34.83
45888;BME280;31595;51.418;7.572;2022-07-09T11:37:45;101209.19;;;29.21;35.02
45888;BME280;31595;51.418;7.572;2022-07-09T11:40:16;101199.97;;;29.74;34.31
45888;BME280;31595;51.418;7.572;2022-07-09T11:42:44;101191.19;;;30.98;32.14
45888;BME280;31595;51.418;7.572;2022-07-09T11:45:13;101192.34;;;32.40;30.21
45888;BME280;31595;51.418;7.572;2022-07-09T11:47:40;101184.50;;;33.94;28.69
45888;BME280;31595;51.418;7.572;2022-07-09T11:50:10;101176.69;;;35.19;26.42
45888;BME280;31595;51.418;7.572;2022-07-09T11:52:43;101173.25;;;36.00;26.13
45888;BME280;31595;51.418;7.572;2022-07-09T11:55:13;101161.13;;;36.64;23.98
45888;BME280;31595;51.418;7.572;2022-07-09T11:57:51;101163.63;;;37.57;23.08
45888;BME280;31595;51.418;7.572;2022-07-09T12:00:25;101162.09;;;37.90;22.57
45888;BME280;31595;51.418;7.572;2022-07-09T12:02:53;101171.72;;;38.48;22.40
45888;BME280;31595;51.418;7.572;2022-07-09T12:05:26;101155.97;;;38.64;21.05
45888;BME280;31595;51.418;7.572;2022-07-09T12:07:53;101157.19;;;37.26;22.32
45888;BME280;31595;51.418;7.572;2022-07-09T12:10:26;101150.63;;;36.66;23.34
45888;BME280;31595;51.418;7.572;2022-07-09T12:12:54;101150.28;;;35.17;24.50
45888;BME280;31595;51.418;7.572;2022-07-09T12:15:21;101153.06;;;34.60;26.35
45888;BME280;31595;51.418;7.572;2022-07-09T12:17:53;101144.75;;;33.85;26.91
45888;BME280;31595;51.418;7.572;2022-07-09T12:20:21;101153.31;;;33.01;27.41
45888;BME280;31595;51.418;7.572;2022-07-09T12:22:49;101146.47;;;32.13;28.63
45888;BME280;31595;51.418;7.572;2022-07-09T12:25:18;101149.91;;;31.28;30.17
45888;BME280;31595;51.418;7.572;2022-07-09T12:27:45;101157.31;;;30.58;31.60
45888;BME280;31595;51.418;7.572;2022-07-09T12:30:13;101161.75;;;29.81;33.75
45888;BME280;31595;51.418;7.572;2022-07-09T12:32:41;101157.47;;;29.28;34.77
45888;BME280;31595;51.418;7.572;2022-07-09T12:35:10;101162.03;;;28.77;36.54
45888;BME280;31595;51.418;7.572;2022-07-09T12:37:38;101155.38;;;28.38;36.26
45888;BME280;31595;51.418;7.572;2022-07-09T12:40:07;101156.44;;;28.03;36.94
45888;BME280;31595;51.418;7.572;2022-07-09T12:42:35;101159.00;;;27.83;37.65
45888;BME280;31595;51.418;7.572;2022-07-09T12:45:04;101148.41;;;27.69;38.03
45888;BME280;31595;51.418;7.572;2022-07-09T12:47:31;101154.56;;;27.67;38.28
45888;BME280;31595;51.418;7.572;2022-07-09T12:49:59;101142.34;;;27.52;38.19
45888;BME280;31595;51.418;7.572;2022-07-09T12:52:31;101147.34;;;27.34;38.91
45888;BME280;31595;51.418;7.572;2022-07-09T12:54:59;101142.03;;;27.22;39.21
45888;BME280;31595;51.418;7.572;2022-07-09T12:57:27;101136.75;;;27.09;39.63